sensor_id;sensor_type;location;lat;lon;timestamp;P1;durP1;ratioP1;P2;durP2;ratioP2
82787;SDS011;72529;51.786;4.662;2023-09-18T00:02:19;22.55;;;22.55;;
82787;SDS011;72529;51.786;4.662;2023-09-18T00:04:45;21.72;;;21.72;;
82787;SDS011;72529;51.786;4.662;2023-09-18T00:07:10;21.41;;;21.41;;
82787;SDS011;72529;51.786;4.662;2023-09-18T00:09:36;21.13;;;21.13;;
82787;SDS011;72529;51.786;4.662;2023-09-18T00:12:01;20.59;;;20.59;;
82787;SDS011;72529;51.786;4.662;2023-09-18T00:14:27;20.86;;;20.86;;
82787;SDS011;72529;51.786;4.662;2023-09-18T00:16:52;21.72;;;21.72;;
82787;SDS011;72529;51.786;4.662;2023-09-18T00:19:18;21.19;;;21.13;;
82787;SDS011;72529;51.786;4.662;2023-09-18T00:21:43;21.24;;;21.24;;
82787;SDS011;72529;51.786;4.662;2023-09-18T00:24:09;21.09;;;21.09;;
82787;SDS011;72529;51.786;4.662;2023-09-18T00:26:36;20.82;;;20.76;;
82787;SDS011;72529;51.786;4.662;2023-09-18T00:29:02;20.39;;;20.39;;
82787;SDS011;72529;51.786;4.662;2023-09-18T00:31:27;20.02;;;20.02;;
82787;SDS011;72529;51.786;4.662;2023-09-18T00:33:53;20.17;;;20.17;;
82787;SDS011;72529;51.786;4.662;2023-09-18T00:36:18;19.46;;;19.46;;
82787;SDS011;72529;51.786;4.662;2023-09-18T00:38:43;19.64;;;19.60;;
82787;SDS011;72529;51.786;4.662;2023-09-18T00:41:09;20.32;;;20.31;;
82787;SDS011;72529;51.786;4.662;2023-09-18T00:43:34;20.12;;;20.11;;
82787;SDS011;72529;51.786;4.662;2023-09-18T00:46:00;20.33;;;20.33;;
82787;SDS011;72529;51.786;4.662;2023-09-18T00:48:26;20.44;;;20.44;;
82787;SDS011;72529;51.786;4.662;2023-09-18T00:50:53;20.31;;;20.31;;
82787;SDS011;72529;51.786;4.662;2023-09-18T00:53:20;21.01;;;21.01;;
82787;SDS011;72529;51.786;4.662;2023-09-18T00:55:49;20.71;;;20.71;;
82787;SDS011;72529;51.786;4.662;2023-09-18T00:58:18;20.80;;;20.78;;
82787;SDS011;72529;51.786;4.662;2023-09-18T01:00:44;20.49;;;20.48;;
82787;SDS011;72529;51.786;4.662;2023-09-18T01:03:10;20.35;;;20.34;;
82787;SDS011;72529;51.786;4.662;2023-09-18T01:05:36;20.11;;;20.11;;
82787;SDS011;72529;51.786;4.662;2023-09-18T01:08:01;19.66;;;19.66;;
82787;SDS011;72529;51.786;4.662;2023-09-18T01:10:33;20.51;;;20.51;;
82787;SDS011;72529;51.786;4.662;2023-09-18T01:13:14;19.49;;;19.49;;
82787;SDS011;72529;51.786;4.662;2023-09-18T01:15:51;19.71;;;19.71;;
82787;SDS011;72529;51.786;4.662;2023-09-18T01:18:22;19.71;;;19.65;;
82787;SDS011;72529;51.786;4.662;2023-09-18T01:20:48;19.48;;;19.48;;
82787;SDS011;72529;51.786;4.662;2023-09-18T01:23:13;19.37;;;19.37;;
82787;SDS011;72529;51.786;4.662;2023-09-18T01:25:39;19.72;;;19.72;;
82787;SDS011;72529;51.786;4.662;2023-09-18T01:28:04;19.70;;;19.70;;
82787;SDS011;72529;51.786;4.662;2023-09-18T01:30:30;19.55;;;19.54;;
82787;SDS011;72529;51.786;4.662;2023-09-18T01:32:55;19.27;;;19.27;;
82787;SDS011;72529;51.786;4.662;2023-09-18T01:35:25;19.44;;;19.44;;
82787;SDS011;72529;51.786;4.662;2023-09-18T01:37:58;19.26;;;19.26;;
82787;SDS011;72529;51.786;4.662;2023-09-18T01:40:25;18.76;;;18.75;;
82787;SDS011;72529;51.786;4.662;2023-09-18T01:42:52;19.32;;;19.32;;
82787;SDS011;72529;51.786;4.662;2023-09-18T01:45:18;18.66;;;18.66;;
82787;SDS011;72529;51.786;4.662;2023-09-18T01:47:44;18.10;;;18.10;;
82787;SDS011;72529;51.786;4.662;2023-09-18T01:50:10;18.28;;;18.28;;
82787;SDS011;72529;51.786;4.662;2023-09-18T01:52:36;17.60;;;17.60;;
82787;SDS011;72529;51.786;4.662;2023-09-18T01:55:02;17.55;;;17.55;;
82787;SDS011;72529;51.786;4.662;2023-09-18T01:57:29;17.65;;;17.65;;
82787;SDS011;72529;51.786;4.662;2023-09-18T01:59:55;17.28;;;17.28;;
82787;SDS011;72529;51.786;4.662;2023-09-18T02:02:20;16.71;;;16.71;;
82787;SDS011;72529;51.786;4.662;2023-09-18T02:04:46;17.10;;;17.10;;
82787;SDS011;72529;51.786;4.662;2023-09-18T02:07:11;16.29;;;16.29;;
82787;SDS011;72529;51.786;4.662;2023-09-18T02:09:36;16.08;;;16.08;;
82787;SDS011;72529;51.786;4.662;2023-09-18T02:12:02;15.69;;;15.69;;
82787;SDS011;72529;51.786;4.662;2023-09-18T02:14:27;15.14;;;15.14;;
82787;SDS011;72529;51.786;4.662;2023-09-18T02:16:56;16.34;;;16.33;;
82787;SDS011;72529;51.786;4.662;2023-09-18T02:19:22;15.41;;;15.41;;
82787;SDS011;72529;51.786;4.662;2023-09-18T02:21:47;15.20;;;15.20;;
82787;SDS011;72529;51.786;4.662;2023-09-18T02:24:13;15.23;;;15.23;;
82787;SDS011;72529;51.786;4.662;2023-09-18T02:26:38;15.69;;;15.69;;
82787;SDS011;72529;51.786;4.662;2023-09-18T02:29:06;14.83;;;14.83;;
82787;SDS011;72529;51.786;4.662;2023-09-18T02:31:34;15.62;;;15.62;;
82787;SDS011;72529;51.786;4.662;2023-09-18T02:33:59;14.85;;;14.85;;
82787;SDS011;72529;51.786;4.662;2023-09-18T02:36:25;15.08;;;15.08;;
82787;SDS011;72529;51.786;4.662;2023-09-18T02:38:50;14.71;;;14.71;;
82787;SDS011;72529;51.786;4.662;2023-09-18T02:41:16;14.03;;;14.03;;
82787;SDS011;72529;51.786;4.662;2023-09-18T02:43:41;13.94;;;13.94;;
82787;SDS011;72529;51.786;4.662;2023-09-18T02:46:07;14.60;;;14.60;;
82787;SDS011;72529;51.786;4.662;2023-09-18T02:48:33;13.74;;;13.74;;
82787;SDS011;72529;51.786;4.662;2023-09-18T02:50:59;14.31;;;14.31;;
82787;SDS011;72529;51.786;4.662;2023-09-18T02:53:25;14.45;;;14.45;;
82787;SDS011;72529;51.786;4.662;2023-09-18T02:55:52;14.10;;;14.10;;
82787;SDS011;72529;51.786;4.662;2023-09-18T02:58:19;13.88;;;13.88;;
82787;SDS011;72529;51.786;4.662;2023-09-18T03:00:45;14.70;;;14.70;;
82787;SDS011;72529;51.786;4.662;2023-09-18T03:03:12;14.85;;;14.85;;
82787;SDS011;72529;51.786;4.662;2023-09-18T03:05:40;14.53;;;14.53;;
82787;SDS011;72529;51.786;4.662;2023-09-18T03:08:07;14.74;;;14.74;;
82787;SDS011;72529;51.786;4.662;2023-09-18T03:10:34;14.28;;;14.28;;
82787;SDS011;72529;51.786;4.662;2023-09-18T03:13:00;14.28;;;14.27;;
82787;SDS011;72529;51.786;4.662;2023-09-18T03:15:26;14.01;;;14.01;;
82787;SDS011;72529;51.786;4.662;2023-09-18T03:17:52;14.26;;;14.26;;
82787;SDS011;72529;51.786;4.662;2023-09-18T03:20:17;13.81;;;13.81;;
82787;SDS011;72529;51.786;4.662;2023-09-18T03:22:43;13.14;;;13.14;;
82787;SDS011;72529;51.786;4.662;2023-09-18T03:25:08;13.01;;;13.01;;
82787;SDS011;72529;51.786;4.662;2023-09-18T03:27:35;12.27;;;12.27;;
82787;SDS011;72529;51.786;4.662;2023-09-18T03:30:00;11.07;;;11.07;;
82787;SDS011;72529;51.786;4.662;2023-09-18T03:32:26;10.47;;;10.47;;
82787;SDS011;72529;51.786;4.662;2023-09-18T03:34:51;10.49;;;10.49;;
82787;SDS011;72529;51.786;4.662;2023-09-18T03:37:17;10.28;;;10.28;;
82787;SDS011;72529;51.786;4.662;2023-09-18T03:39:43;10.59;;;10.59;;
82787;SDS011;72529;51.786;4.662;2023-09-18T03:42:09;9.63;;;9.63;;
82787;SDS011;72529;51.786;4.662;2023-09-18T03:44:34;10.71;;;10.71;;
82787;SDS011;72529;51.786;4.662;2023-09-18T03:46:59;9.37;;;9.37;;
82787;SDS011;72529;51.786;4.662;2023-09-18T03:49:26;9.34;;;9.34;;
82787;SDS011;72529;51.786;4.662;2023-09-18T03:51:52;8.39;;;8.39;;
82787;SDS011;72529;51.786;4.662;2023-09-18T03:54:17;7.49;;;7.49;;
82787;SDS011;72529;51.786;4.662;2023-09-18T03:56:43;7.38;;;7.38;;
82787;SDS011;72529;51.786;4.662;2023-09-18T03:59:08;7.09;;;7.09;;
82787;SDS011;72529;51.786;4.662;2023-09-18T04:01:34;6.53;;;6.53;;
82787;SDS011;72529;51.786;4.662;2023-09-18T04:03:59;6.62;;;6.62;;
82787;SDS011;72529;51.786;4.662;2023-09-18T04:06:25;6.64;;;6.64;;
82787;SDS011;72529;51.786;4.662;2023-09-18T04:09:02;6.23;;;6.23;;
82787;SDS011;72529;51.786;4.662;2023-09-18T04:11:27;6.48;;;6.48;;
82787;SDS011;72529;51.786;4.662;2023-09-18T04:13:58;6.33;;;6.33;;
82787;SDS011;72529;51.786;4.662;2023-09-18T04:16:24;6.25;;;6.25;;
82787;SDS011;72529;51.786;4.662;2023-09-18T04:18:51;6.38;;;6.38;;
82787;SDS011;72529;51.786;4.662;2023-09-18T04:21:16;6.26;;;6.26;;
82787;SDS011;72529;51.786;4.662;2023-09-18T04:23:42;6.38;;;6.38;;
82787;SDS011;72529;51.786;4.662;2023-09-18T04:26:07;6.39;;;6.39;;
82787;SDS011;72529;51.786;4.662;2023-09-18T04:28:32;7.17;;;7.17;;
82787;SDS011;72529;51.786;4.662;2023-09-18T04:30:58;6.95;;;6.95;;
82787;SDS011;72529;51.786;4.662;2023-09-18T04:33:23;6.98;;;6.98;;
82787;SDS011;72529;51.786;4.662;2023-09-18T04:35:50;6.92;;;6.92;;
82787;SDS011;72529;51.786;4.662;2023-09-18T04:38:16;6.77;;;6.77;;
82787;SDS011;72529;51.786;4.662;2023-09-18T04:40:43;7.17;;;7.17;;
82787;SDS011;72529;51.786;4.662;2023-09-18T04:43:10;6.75;;;6.75;;
82787;SDS011;72529;51.786;4.662;2023-09-18T04:45:36;6.83;;;6.83;;
82787;SDS011;72529;51.786;4.662;2023-09-18T04:48:02;7.26;;;7.26;;
82787;SDS011;72529;51.786;4.662;2023-09-18T04:50:28;7.91;;;7.91;;
82787;SDS011;72529;51.786;4.662;2023-09-18T04:52:54;8.44;;;8.44;;
82787;SDS011;72529;51.786;4.662;2023-09-18T04:55:21;7.98;;;7.98;;
82787;SDS011;72529;51.786;4.662;2023-09-18T04:57:46;8.41;;;8.41;;
82787;SDS011;72529;51.786;4.662;2023-09-18T05:00:12;7.98;;;7.98;;
82787;SDS011;72529;51.786;4.662;2023-09-18T05:02:39;7.91;;;7.91;;
82787;SDS011;72529;51.786;4.662;2023-09-18T05:05:05;7.47;;;7.47;;
82787;SDS011;72529;51.786;4.662;2023-09-18T05:07:34;7.35;;;7.35;;
82787;SDS011;72529;51.786;4.662;2023-09-18T05:10:00;7.07;;;7.07;;
82787;SDS011;72529;51.786;4.662;2023-09-18T05:12:25;6.43;;;6.43;;
82787;SDS011;72529;51.786;4.662;2023-09-18T05:14:51;6.31;;;6.31;;
82787;SDS011;72529;51.786;4.662;2023-09-18T05:17:16;5.76;;;5.76;;
82787;SDS011;72529;51.786;4.662;2023-09-18T05:19:43;5.19;;;5.19;;
82787;SDS011;72529;51.786;4.662;2023-09-18T05:22:08;4.83;;;4.83;;
82787;SDS011;72529;51.786;4.662;2023-09-18T05:24:35;5.05;;;5.05;;
82787;SDS011;72529;51.786;4.662;2023-09-18T05:27:04;5.16;;;5.16;;
82787;SDS011;72529;51.786;4.662;2023-09-18T05:29:32;5.23;;;5.23;;
82787;SDS011;72529;51.786;4.662;2023-09-18T05:31:58;5.90;;;5.90;;
82787;SDS011;72529;51.786;4.662;2023-09-18T05:34:24;5.67;;;5.67;;
82787;SDS011;72529;51.786;4.662;2023-09-18T05:36:49;6.15;;;6.15;;
82787;SDS011;72529;51.786;4.662;2023-09-18T05:39:15;5.98;;;5.98;;
82787;SDS011;72529;51.786;4.662;2023-09-18T05:41:40;6.18;;;6.18;;
82787;SDS011;72529;51.786;4.662;2023-09-18T05:44:06;6.64;;;6.64;;
82787;SDS011;72529;51.786;4.662;2023-09-18T05:46:35;6.70;;;6.70;;
82787;SDS011;72529;51.786;4.662;2023-09-18T05:49:01;7.01;;;7.01;;
82787;SDS011;72529;51.786;4.662;2023-09-18T05:51:27;7.48;;;7.48;;
82787;SDS011;72529;51.786;4.662;2023-09-18T05:53:53;7.69;;;7.69;;
82787;SDS011;72529;51.786;4.662;2023-09-18T05:56:18;7.45;;;7.45;;
82787;SDS011;72529;51.786;4.662;2023-09-18T05:58:44;8.10;;;8.10;;
82787;SDS011;72529;51.786;4.662;2023-09-18T06:01:09;8.63;;;8.63;;
82787;SDS011;72529;51.786;4.662;2023-09-18T06:03:35;8.83;;;8.83;;
82787;SDS011;72529;51.786;4.662;2023-09-18T06:06:07;8.80;;;8.80;;
82787;SDS011;72529;51.786;4.662;2023-09-18T06:08:33;8.64;;;8.64;;
82787;SDS011;72529;51.786;4.662;2023-09-18T06:10:59;8.73;;;8.73;;
82787;SDS011;72529;51.786;4.662;2023-09-18T06:13:24;8.77;;;8.77;;
82787;SDS011;72529;51.786;4.662;2023-09-18T06:15:51;9.10;;;9.10;;
82787;SDS011;72529;51.786;4.662;2023-09-18T06:18:19;8.66;;;8.66;;
82787;SDS011;72529;51.786;4.662;2023-09-18T06:20:46;8.62;;;8.62;;
82787;SDS011;72529;51.786;4.662;2023-09-18T06:23:11;8.67;;;8.67;;
82787;SDS011;72529;51.786;4.662;2023-09-18T06:25:38;8.36;;;8.36;;
82787;SDS011;72529;51.786;4.662;2023-09-18T06:28:04;7.87;;;7.87;;
82787;SDS011;72529;51.786;4.662;2023-09-18T06:30:30;8.08;;;8.08;;
82787;SDS011;72529;51.786;4.662;2023-09-18T06:32:56;7.75;;;7.75;;
82787;SDS011;72529;51.786;4.662;2023-09-18T06:35:22;7.90;;;7.90;;
82787;SDS011;72529;51.786;4.662;2023-09-18T06:37:47;7.88;;;7.88;;
82787;SDS011;72529;51.786;4.662;2023-09-18T06:40:13;7.04;;;7.04;;
82787;SDS011;72529;51.786;4.662;2023-09-18T06:42:38;7.05;;;7.05;;
82787;SDS011;72529;51.786;4.662;2023-09-18T06:45:04;6.58;;;6.58;;
82787;SDS011;72529;51.786;4.662;2023-09-18T06:47:32;6.81;;;6.81;;
82787;SDS011;72529;51.786;4.662;2023-09-18T06:49:58;6.87;;;6.87;;
82787;SDS011;72529;51.786;4.662;2023-09-18T06:52:25;6.95;;;6.95;;
82787;SDS011;72529;51.786;4.662;2023-09-18T06:54:52;6.87;;;6.87;;
82787;SDS011;72529;51.786;4.662;2023-09-18T06:57:18;6.99;;;6.99;;
82787;SDS011;72529;51.786;4.662;2023-09-18T06:59:43;7.31;;;7.31;;
82787;SDS011;72529;51.786;4.662;2023-09-18T07:02:09;7.09;;;7.09;;
82787;SDS011;72529;51.786;4.662;2023-09-18T07:04:35;7.14;;;7.14;;
82787;SDS011;72529;51.786;4.662;2023-09-18T07:07:02;7.27;;;7.27;;
82787;SDS011;72529;51.786;4.662;2023-09-18T07:09:27;7.63;;;7.63;;
82787;SDS011;72529;51.786;4.662;2023-09-18T07:11:53;7.52;;;7.52;;
82787;SDS011;72529;51.786;4.662;2023-09-18T07:14:18;7.72;;;7.72;;
82787;SDS011;72529;51.786;4.662;2023-09-18T07:16:43;7.65;;;7.65;;
82787;SDS011;72529;51.786;4.662;2023-09-18T07:19:09;7.61;;;7.61;;
82787;SDS011;72529;51.786;4.662;2023-09-18T07:21:37;8.63;;;8.63;;
82787;SDS011;72529;51.786;4.662;2023-09-18T07:24:03;9.68;;;9.68;;
82787;SDS011;72529;51.786;4.662;2023-09-18T07:26:29;8.49;;;8.49;;
82787;SDS011;72529;51.786;4.662;2023-09-18T07:28:54;8.75;;;8.75;;
82787;SDS011;72529;51.786;4.662;2023-09-18T07:31:20;8.34;;;8.34;;
82787;SDS011;72529;51.786;4.662;2023-09-18T07:33:45;8.85;;;8.85;;
82787;SDS011;72529;51.786;4.662;2023-09-18T07:36:11;8.45;;;8.44;;
82787;SDS011;72529;51.786;4.662;2023-09-18T07:38:37;7.93;;;7.92;;
82787;SDS011;72529;51.786;4.662;2023-09-18T07:41:03;8.12;;;8.12;;
82787;SDS011;72529;51.786;4.662;2023-09-18T07:43:28;7.74;;;7.74;;
82787;SDS011;72529;51.786;4.662;2023-09-18T07:45:54;7.48;;;7.48;;
82787;SDS011;72529;51.786;4.662;2023-09-18T07:48:21;7.57;;;7.57;;
82787;SDS011;72529;51.786;4.662;2023-09-18T07:50:47;8.16;;;8.16;;
82787;SDS011;72529;51.786;4.662;2023-09-18T07:53:14;8.57;;;8.57;;
82787;SDS011;72529;51.786;4.662;2023-09-18T07:55:40;8.79;;;8.79;;
82787;SDS011;72529;51.786;4.662;2023-09-18T07:58:06;8.18;;;8.18;;
82787;SDS011;72529;51.786;4.662;2023-09-18T08:00:31;8.37;;;8.37;;
82787;SDS011;72529;51.786;4.662;2023-09-18T08:02:58;8.49;;;8.49;;
82787;SDS011;72529;51.786;4.662;2023-09-18T08:05:26;8.33;;;8.33;;
82787;SDS011;72529;51.786;4.662;2023-09-18T08:07:56;7.73;;;7.73;;
82787;SDS011;72529;51.786;4.662;2023-09-18T08:10:24;7.41;;;7.41;;
82787;SDS011;72529;51.786;4.662;2023-09-18T08:12:50;7.75;;;7.75;;
82787;SDS011;72529;51.786;4.662;2023-09-18T08:15:18;7.49;;;7.49;;
82787;SDS011;72529;51.786;4.662;2023-09-18T08:17:44;6.92;;;6.92;;
82787;SDS011;72529;51.786;4.662;2023-09-18T08:20:11;6.52;;;6.52;;
82787;SDS011;72529;51.786;4.662;2023-09-18T08:22:38;6.99;;;6.99;;
82787;SDS011;72529;51.786;4.662;2023-09-18T08:25:05;6.67;;;6.67;;
82787;SDS011;72529;51.786;4.662;2023-09-18T08:27:38;6.30;;;6.30;;
82787;SDS011;72529;51.786;4.662;2023-09-18T08:30:07;6.14;;;6.14;;
82787;SDS011;72529;51.786;4.662;2023-09-18T08:32:35;6.08;;;6.08;;
82787;SDS011;72529;51.786;4.662;2023-09-18T08:35:01;5.69;;;5.69;;
82787;SDS011;72529;51.786;4.662;2023-09-18T08:37:27;5.29;;;5.29;;
82787;SDS011;72529;51.786;4.662;2023-09-18T08:39:53;5.47;;;5.47;;
82787;SDS011;72529;51.786;4.662;2023-09-18T08:42:19;4.88;;;4.88;;
82787;SDS011;72529;51.786;4.662;2023-09-18T08:44:48;5.32;;;5.32;;
82787;SDS011;72529;51.786;4.662;2023-09-18T08:47:16;5.46;;;5.46;;
82787;SDS011;72529;51.786;4.662;2023-09-18T08:49:44;5.54;;;5.54;;
82787;SDS011;72529;51.786;4.662;2023-09-18T08:52:13;6.24;;;6.24;;
82787;SDS011;72529;51.786;4.662;2023-09-18T08:54:40;5.93;;;5.93;;
82787;SDS011;72529;51.786;4.662;2023-09-18T08:57:08;6.21;;;6.21;;
82787;SDS011;72529;51.786;4.662;2023-09-18T08:59:34;6.03;;;6.03;;
82787;SDS011;72529;51.786;4.662;2023-09-18T09:02:03;5.89;;;5.89;;
82787;SDS011;72529;51.786;4.662;2023-09-18T09:04:29;6.13;;;6.13;;
82787;SDS011;72529;51.786;4.662;2023-09-18T09:06:54;6.10;;;6.10;;
82787;SDS011;72529;51.786;4.662;2023-09-18T09:09:22;6.24;;;6.24;;
82787;SDS011;72529;51.786;4.662;2023-09-18T09:11:49;6.33;;;6.33;;
82787;SDS011;72529;51.786;4.662;2023-09-18T09:14:15;6.19;;;6.19;;
82787;SDS011;72529;51.786;4.662;2023-09-18T09:16:50;6.25;;;6.25;;
82787;SDS011;72529;51.786;4.662;2023-09-18T09:19:16;6.64;;;6.64;;
82787;SDS011;72529;51.786;4.662;2023-09-18T09:22:04;6.74;;;6.74;;
82787;SDS011;72529;51.786;4.662;2023-09-18T09:24:40;7.34;;;7.34;;
82787;SDS011;72529;51.786;4.662;2023-09-18T09:27:07;7.21;;;7.21;;
82787;SDS011;72529;51.786;4.662;2023-09-18T09:29:33;7.56;;;7.56;;
82787;SDS011;72529;51.786;4.662;2023-09-18T09:32:16;8.15;;;8.15;;
82787;SDS011;72529;51.786;4.662;2023-09-18T09:34:43;10.45;;;10.45;;
82787;SDS011;72529;51.786;4.662;2023-09-18T09:37:10;10.94;;;10.94;;
82787;SDS011;72529;51.786;4.662;2023-09-18T09:39:45;7.92;;;7.92;;
82787;SDS011;72529;51.786;4.662;2023-09-18T09:42:18;7.95;;;7.95;;
82787;SDS011;72529;51.786;4.662;2023-09-18T09:45:09;7.96;;;7.96;;
82787;SDS011;72529;51.786;4.662;2023-09-18T09:47:37;7.86;;;7.86;;
82787;SDS011;72529;51.786;4.662;2023-09-18T09:50:13;8.20;;;8.20;;
82787;SDS011;72529;51.786;4.662;2023-09-18T09:52:45;8.50;;;8.50;;
82787;SDS011;72529;51.786;4.662;2023-09-18T09:55:24;9.01;;;9.01;;
82787;SDS011;72529;51.786;4.662;2023-09-18T09:57:52;8.57;;;8.57;;
82787;SDS011;72529;51.786;4.662;2023-09-18T10:00:22;8.15;;;8.15;;
82787;SDS011;72529;51.786;4.662;2023-09-18T10:02:56;8.12;;;8.12;;
82787;SDS011;72529;51.786;4.662;2023-09-18T10:05:26;7.91;;;7.91;;
82787;SDS011;72529;51.786;4.662;2023-09-18T10:07:59;7.89;;;7.89;;
82787;SDS011;72529;51.786;4.662;2023-09-18T10:10:46;7.47;;;7.47;;
82787;SDS011;72529;51.786;4.662;2023-09-18T10:13:15;7.91;;;7.91;;
82787;SDS011;72529;51.786;4.662;2023-09-18T10:15:57;7.28;;;7.28;;
82787;SDS011;72529;51.786;4.662;2023-09-18T10:18:28;7.59;;;7.59;;
82787;SDS011;72529;51.786;4.662;2023-09-18T10:27:01;7.58;;;7.58;;
82787;SDS011;72529;51.786;4.662;2023-09-18T10:29:30;7.44;;;7.44;;
82787;SDS011;72529;51.786;4.662;2023-09-18T10:31:57;7.08;;;7.08;;
82787;SDS011;72529;51.786;4.662;2023-09-18T10:34:23;7.50;;;7.50;;
82787;SDS011;72529;51.786;4.662;2023-09-18T10:36:50;6.83;;;6.83;;
82787;SDS011;72529;51.786;4.662;2023-09-18T10:39:18;6.77;;;6.77;;
82787;SDS011;72529;51.786;4.662;2023-09-18T10:41:48;6.46;;;6.46;;
82787;SDS011;72529;51.786;4.662;2023-09-18T10:44:16;6.36;;;6.36;;
82787;SDS011;72529;51.786;4.662;2023-09-18T10:46:45;5.88;;;5.88;;
82787;SDS011;72529;51.786;4.662;2023-09-18T10:49:15;5.76;;;5.76;;
82787;SDS011;72529;51.786;4.662;2023-09-18T10:51:42;6.18;;;6.18;;
82787;SDS011;72529;51.786;4.662;2023-09-18T10:54:08;6.19;;;6.19;;
82787;SDS011;72529;51.786;4.662;2023-09-18T10:56:35;6.05;;;6.05;;
82787;SDS011;72529;51.786;4.662;2023-09-18T10:59:01;6.52;;;6.52;;
82787;SDS011;72529;51.786;4.662;2023-09-18T11:01:30;7.31;;;7.31;;
82787;SDS011;72529;51.786;4.662;2023-09-18T11:04:06;6.92;;;6.92;;
82787;SDS011;72529;51.786;4.662;2023-09-18T11:09:21;6.07;;;6.07;;
82787;SDS011;72529;51.786;4.662;2023-09-18T11:14:43;5.98;;;5.98;;
82787;SDS011;72529;51.786;4.662;2023-09-18T11:17:37;6.40;;;6.40;;
82787;SDS011;72529;51.786;4.662;2023-09-18T11:28:01;5.88;;;5.88;;
82787;SDS011;72529;51.786;4.662;2023-09-18T11:30:27;5.89;;;5.89;;
82787;SDS011;72529;51.786;4.662;2023-09-18T11:32:54;5.44;;;5.44;;
82787;SDS011;72529;51.786;4.662;2023-09-18T11:35:21;5.61;;;5.61;;
82787;SDS011;72529;51.786;4.662;2023-09-18T11:37:47;5.43;;;5.43;;
82787;SDS011;72529;51.786;4.662;2023-09-18T11:40:32;5.37;;;5.37;;
82787;SDS011;72529;51.786;4.662;2023-09-18T11:45:59;5.36;;;5.36;;
82787;SDS011;72529;51.786;4.662;2023-09-18T11:48:29;5.19;;;5.19;;
82787;SDS011;72529;51.786;4.662;2023-09-18T11:50:59;5.29;;;5.29;;
82787;SDS011;72529;51.786;4.662;2023-09-18T11:53:28;5.36;;;5.36;;
82787;SDS011;72529;51.786;4.662;2023-09-18T11:55:59;5.09;;;5.09;;
82787;SDS011;72529;51.786;4.662;2023-09-18T11:58:24;5.41;;;5.41;;
82787;SDS011;72529;51.786;4.662;2023-09-18T12:00:50;5.13;;;5.13;;
82787;SDS011;72529;51.786;4.662;2023-09-18T12:03:19;5.01;;;5.01;;
82787;SDS011;72529;51.786;4.662;2023-09-18T12:05:53;5.13;;;5.13;;
82787;SDS011;72529;51.786;4.662;2023-09-18T12:08:22;5.09;;;5.09;;
82787;SDS011;72529;51.786;4.662;2023-09-18T12:10:51;5.03;;;5.03;;
82787;SDS011;72529;51.786;4.662;2023-09-18T12:13:20;5.28;;;5.28;;
82787;SDS011;72529;51.786;4.662;2023-09-18T12:15:47;5.56;;;5.56;;
82787;SDS011;72529;51.786;4.662;2023-09-18T12:18:14;5.10;;;5.10;;
82787;SDS011;72529;51.786;4.662;2023-09-18T12:20:46;5.33;;;5.33;;
82787;SDS011;72529;51.786;4.662;2023-09-18T12:23:13;5.07;;;5.07;;
82787;SDS011;72529;51.786;4.662;2023-09-18T12:25:39;5.17;;;5.17;;
82787;SDS011;72529;51.786;4.662;2023-09-18T12:28:06;5.00;;;5.00;;
82787;SDS011;72529;51.786;4.662;2023-09-18T12:30:33;4.72;;;4.72;;
82787;SDS011;72529;51.786;4.662;2023-09-18T12:32:59;5.02;;;5.02;;
82787;SDS011;72529;51.786;4.662;2023-09-18T12:35:26;4.53;;;4.53;;
82787;SDS011;72529;51.786;4.662;2023-09-18T12:37:55;4.44;;;4.44;;
82787;SDS011;72529;51.786;4.662;2023-09-18T12:40:30;3.94;;;3.94;;
82787;SDS011;72529;51.786;4.662;2023-09-18T12:42:59;3.80;;;3.80;;
82787;SDS011;72529;51.786;4.662;2023-09-18T12:45:26;3.80;;;3.80;;
82787;SDS011;72529;51.786;4.662;2023-09-18T12:47:54;3.69;;;3.69;;
82787;SDS011;72529;51.786;4.662;2023-09-18T12:50:21;3.76;;;3.76;;
82787;SDS011;72529;51.786;4.662;2023-09-18T12:52:47;3.98;;;3.98;;
82787;SDS011;72529;51.786;4.662;2023-09-18T12:57:52;4.93;;;4.93;;
82787;SDS011;72529;51.786;4.662;2023-09-18T13:00:19;4.76;;;4.76;;
82787;SDS011;72529;51.786;4.662;2023-09-18T13:02:48;4.89;;;4.89;;
82787;SDS011;72529;51.786;4.662;2023-09-18T13:05:19;5.02;;;5.02;;
82787;SDS011;72529;51.786;4.662;2023-09-18T13:07:46;5.05;;;5.05;;
82787;SDS011;72529;51.786;4.662;2023-09-18T13:10:16;5.25;;;5.25;;
82787;SDS011;72529;51.786;4.662;2023-09-18T13:12:48;5.88;;;5.88;;
82787;SDS011;72529;51.786;4.662;2023-09-18T13:15:30;5.48;;;5.48;;
82787;SDS011;72529;51.786;4.662;2023-09-18T13:18:00;4.65;;;4.65;;
82787;SDS011;72529;51.786;4.662;2023-09-18T13:20:33;4.61;;;4.61;;
82787;SDS011;72529;51.786;4.662;2023-09-18T13:22:59;4.25;;;4.25;;
82787;SDS011;72529;51.786;4.662;2023-09-18T13:25:27;4.15;;;4.15;;
82787;SDS011;72529;51.786;4.662;2023-09-18T13:27:59;4.58;;;4.58;;
82787;SDS011;72529;51.786;4.662;2023-09-18T13:30:26;4.14;;;4.14;;
82787;SDS011;72529;51.786;4.662;2023-09-18T13:33:00;4.04;;;4.04;;
82787;SDS011;72529;51.786;4.662;2023-09-18T13:35:31;4.27;;;4.27;;
82787;SDS011;72529;51.786;4.662;2023-09-18T13:37:58;4.29;;;4.29;;
82787;SDS011;72529;51.786;4.662;2023-09-18T13:40:24;4.16;;;4.16;;
82787;SDS011;72529;51.786;4.662;2023-09-18T13:42:50;4.25;;;4.25;;
82787;SDS011;72529;51.786;4.662;2023-09-18T13:45:16;4.10;;;4.10;;
82787;SDS011;72529;51.786;4.662;2023-09-18T13:47:41;3.90;;;3.90;;
82787;SDS011;72529;51.786;4.662;2023-09-18T13:50:08;4.14;;;4.14;;
82787;SDS011;72529;51.786;4.662;2023-09-18T13:52:34;4.15;;;4.15;;
82787;SDS011;72529;51.786;4.662;2023-09-18T13:55:02;3.99;;;3.99;;
82787;SDS011;72529;51.786;4.662;2023-09-18T13:57:33;3.93;;;3.93;;
82787;SDS011;72529;51.786;4.662;2023-09-18T13:59:59;3.99;;;3.99;;
82787;SDS011;72529;51.786;4.662;2023-09-18T14:02:25;4.01;;;4.01;;
82787;SDS011;72529;51.786;4.662;2023-09-18T14:04:54;3.74;;;3.74;;
82787;SDS011;72529;51.786;4.662;2023-09-18T14:07:20;3.53;;;3.53;;
82787;SDS011;72529;51.786;4.662;2023-09-18T14:09:45;3.71;;;3.71;;
82787;SDS011;72529;51.786;4.662;2023-09-18T14:12:11;3.53;;;3.53;;
82787;SDS011;72529;51.786;4.662;2023-09-18T14:14:37;3.63;;;3.63;;
82787;SDS011;72529;51.786;4.662;2023-09-18T14:17:05;3.31;;;3.31;;
82787;SDS011;72529;51.786;4.662;2023-09-18T14:19:31;3.34;;;3.34;;
82787;SDS011;72529;51.786;4.662;2023-09-18T14:21:57;4.43;;;4.43;;
82787;SDS011;72529;51.786;4.662;2023-09-18T14:24:22;3.38;;;3.38;;
82787;SDS011;72529;51.786;4.662;2023-09-18T14:26:53;2.60;;;2.45;;
82787;SDS011;72529;51.786;4.662;2023-09-18T14:29:20;2.31;;;2.09;;
82787;SDS011;72529;51.786;4.662;2023-09-18T14:31:46;2.18;;;1.92;;
82787;SDS011;72529;51.786;4.662;2023-09-18T14:34:11;1.68;;;1.44;;
82787;SDS011;72529;51.786;4.662;2023-09-18T14:36:37;1.55;;;1.34;;
82787;SDS011;72529;51.786;4.662;2023-09-18T14:39:04;1.65;;;1.41;;
82787;SDS011;72529;51.786;4.662;2023-09-18T14:41:30;1.58;;;1.36;;
82787;SDS011;72529;51.786;4.662;2023-09-18T14:43:57;1.42;;;1.24;;
82787;SDS011;72529;51.786;4.662;2023-09-18T14:46:24;1.33;;;1.18;;
82787;SDS011;72529;51.786;4.662;2023-09-18T14:48:49;1.46;;;1.31;;
82787;SDS011;72529;51.786;4.662;2023-09-18T14:51:15;1.42;;;1.28;;
82787;SDS011;72529;51.786;4.662;2023-09-18T14:53:40;1.64;;;1.48;;
82787;SDS011;72529;51.786;4.662;2023-09-18T14:56:06;1.87;;;1.70;;
82787;SDS011;72529;51.786;4.662;2023-09-18T14:58:31;2.09;;;1.93;;
82787;SDS011;72529;51.786;4.662;2023-09-18T15:00:57;2.14;;;2.01;;
82787;SDS011;72529;51.786;4.662;2023-09-18T15:03:22;2.20;;;2.09;;
82787;SDS011;72529;51.786;4.662;2023-09-18T15:05:51;2.65;;;2.54;;
82787;SDS011;72529;51.786;4.662;2023-09-18T15:08:18;2.96;;;2.86;;